Portada
METAR-TAF:

METAR-TAF

Aeroports :

Plataforma petroliera

Sleipner, Noruega

latitud: 58-22-00N, longitud: 001-54-25E, altitud: 50 m

Observació

L'informe es va fer fa 25 minuts, a les 14:20 UTC
Vent 19 kt del Oest
Temperatura 4°C
Humitat 87%
Pressió 992 hPa
Visibilitat 10 km o més

METAR: ENSL 261420Z AUTO 28019KT 9999NDV FEW009/// 04/02 Q0992 W04/S3

Hora: 15:45 (14:45 UTC)


TAF: manca

Observacions i pronòstics meteorològics de més de 4000 aeroports (METAR i TAF).

Les estacions disponibles són els punts grocs i vermells al mapa.

Posi el ratolí al punt desitjat per veure el nom de l'estació.

Feu clic per veure les observacions i els pronòstics meteorològics.

Per canviar el mapa: feu clic els botons verds amb una creu de color negre per apropar; al botó verd amb un guió per allunyar la imatge; o en les fletxes verdes per a mapes adjacents.


METAR-TAF: